Time;durP1;ratioP1;P1;durP2;ratioP2;P2;SDS_P1;SDS_P2;PMS_P1;PMS_P2;Temp;Humidity;BMP_temperature;BMP_pressure;BME280_temperature;BME280_humidity;BME280_pressure;Samples;Min_cycle;Max_cycle;Signal;HPM_P1;HPM_P2
2022/04/08 00:01:47;;;;;;;8.50;1.48;;;18.60;99.90;;;;;;5046511;28;20087;-73
2022/04/08 00:04:15;;;;;;;7.32;1.52;;;18.60;99.90;;;;;;5051423;28;20044;-73
2022/04/08 00:06:42;;;;;;;6.68;1.00;;;18.50;99.90;;;;;;5059518;28;20021;-73
2022/04/08 00:09:09;;;;;;;6.50;1.05;;;18.50;99.90;;;;;;5056621;28;20035;-72
2022/04/08 00:11:37;;;;;;;6.10;1.42;;;18.60;99.90;;;;;;5040395;28;20507;-73
2022/04/08 00:14:04;;;;;;;4.30;0.98;;;18.60;99.90;;;;;;5055994;28;20124;-73
2022/04/08 00:16:32;;;;;;;8.13;1.23;;;18.80;99.90;;;;;;5043042;28;20025;-72
2022/04/08 00:18:59;;;;;;;9.60;1.02;;;18.90;99.90;;;;;;5045430;28;20424;-73
2022/04/08 00:21:27;;;;;;;6.38;1.05;;;19.00;99.90;;;;;;5021932;28;20032;-73
2022/04/08 00:23:54;;;;;;;7.70;1.25;;;18.90;99.90;;;;;;5053458;28;20067;-74
2022/04/08 00:26:22;;;;;;;7.75;0.75;;;18.90;99.90;;;;;;5051268;28;20102;-73
2022/04/08 00:28:49;;;;;;;6.97;0.88;;;18.90;99.90;;;;;;5056975;28;20099;-73
2022/04/08 00:31:16;;;;;;;10.95;1.13;;;19.10;99.90;;;;;;5042164;28;20028;-72
2022/04/08 00:33:43;;;;;;;8.82;2.03;;;19.30;99.90;;;;;;5057375;28;20025;-72
2022/04/08 00:36:11;;;;;;;11.02;1.63;;;19.60;99.90;;;;;;5063564;28;20036;-72
2022/04/08 00:38:38;;;;;;;20.00;3.00;;;20.10;99.90;;;;;;5064497;28;20021;-71
2022/04/08 00:41:05;;;;;;;11.52;2.22;;;20.30;99.90;;;;;;5048208;28;20033;-71
2022/04/08 00:43:40;;;;;;;8.30;1.05;;;20.50;99.90;;;;;;5065998;28;20036;-71
2022/04/08 00:46:09;;;;;;;11.07;1.42;;;20.90;99.90;;;;;;5071837;28;20040;-72
2022/04/08 00:48:37;;;;;;;9.52;1.60;;;21.50;99.90;;;;;;5068203;28;20417;-73
2022/04/08 00:51:07;;;;;;;9.65;1.40;;;21.80;99.90;;;;;;5037194;28;20043;-72
2022/04/08 00:53:37;;;;;;;6.90;0.90;;;22.00;99.90;;;;;;5062267;28;20147;-72
2022/04/08 00:56:05;;;;;;;10.85;0.98;;;22.40;99.90;;;;;;5055161;28;20033;-72
2022/04/08 00:58:35;;;;;;;3.05;0.60;;;22.70;99.90;;;;;;5054455;28;20067;-72
2022/04/08 01:01:02;;;;;;;5.25;0.60;;;22.90;99.90;;;;;;5068754;28;20041;-72
2022/04/08 01:03:30;;;;;;;3.47;0.82;;;23.00;99.90;;;;;;5068172;28;20021;-73
2022/04/08 01:05:58;;;;;;;4.18;0.70;;;22.90;99.90;;;;;;5059434;28;20390;-72
2022/04/08 01:08:26;;;;;;;5.22;0.77;;;23.00;99.90;;;;;;5067604;23;20041;-73
2022/04/08 01:10:54;;;;;;;5.25;0.63;;;23.30;99.90;;;;;;5061342;28;20470;-72
2022/04/08 01:13:22;;;;;;;6.90;0.90;;;23.40;99.90;;;;;;5038757;28;20018;-72
2022/04/08 01:15:49;;;;;;;5.78;0.93;;;23.60;99.90;;;;;;5038612;28;20018;-72
2022/04/08 01:18:17;;;;;;;2.38;0.40;;;23.50;99.90;;;;;;5063511;23;20055;-73
2022/04/08 01:20:44;;;;;;;5.32;0.80;;;23.80;99.90;;;;;;5078554;22;20117;-72
2022/04/08 01:23:16;;;;;;;5.88;0.65;;;24.00;99.90;;;;;;5046672;28;20530;-72
2022/04/08 01:25:44;;;;;;;7.15;0.68;;;24.30;99.90;;;;;;5092282;22;20049;-72
2022/04/08 01:28:11;;;;;;;4.38;0.40;;;24.20;99.90;;;;;;5083537;28;20024;-72
2022/04/08 01:30:42;;;;;;;3.33;0.70;;;23.80;99.90;;;;;;5066705;28;20054;-72
2022/04/08 01:33:09;;;;;;;1.85;0.60;;;23.50;99.90;;;;;;5084813;22;20090;-69
2022/04/08 01:35:36;;;;;;;5.50;0.50;;;23.30;99.90;;;;;;5065653;28;20025;-69
2022/04/08 01:38:04;;;;;;;3.63;0.63;;;23.30;99.90;;;;;;5071239;28;20029;-69
2022/04/08 01:40:31;;;;;;;3.53;0.50;;;23.30;99.90;;;;;;5053435;28;20073;-69
2022/04/08 01:42:58;;;;;;;4.03;0.98;;;23.40;99.90;;;;;;5072016;28;20020;-69
2022/04/08 01:45:25;;;;;;;6.95;0.93;;;23.80;99.90;;;;;;5074066;28;20005;-70
2022/04/08 01:47:53;;;;;;;4.00;0.50;;;23.90;99.90;;;;;;5056634;28;20028;-70
2022/04/08 01:50:21;;;;;;;4.85;0.68;;;24.00;99.90;;;;;;5070949;28;20013;-71
2022/04/08 01:52:49;;;;;;;8.05;1.08;;;23.50;99.90;;;;;;5082400;22;20053;-70
2022/04/08 01:55:18;;;;;;;5.45;0.50;;;23.60;99.90;;;;;;5101597;22;20045;-70
2022/04/08 01:57:49;;;;;;;5.15;0.75;;;24.00;99.90;;;;;;5076533;28;20118;-70
2022/04/08 02:00:16;;;;;;;6.70;1.15;;;24.30;99.90;;;;;;5075530;28;20039;-71
2022/04/08 02:02:45;;;;;;;7.20;0.75;;;24.00;99.90;;;;;;5072223;28;20133;-70
2022/04/08 02:05:13;;;;;;;4.28;0.60;;;24.10;99.90;;;;;;5071355;28;20039;-71
2022/04/08 02:07:40;;;;;;;5.30;0.60;;;24.30;99.90;;;;;;5075091;28;20043;-71
2022/04/08 02:10:08;;;;;;;5.90;0.57;;;24.10;99.90;;;;;;5070835;28;20562;-70
2022/04/08 02:12:35;;;;;;;3.72;0.60;;;24.00;99.90;;;;;;5086080;28;20033;-71
2022/04/08 02:15:03;;;;;;;5.15;0.43;;;23.80;99.90;;;;;;5064363;28;20037;-70
2022/04/08 02:17:31;;;;;;;6.00;0.70;;;23.70;99.90;;;;;;5069260;28;20025;-70
2022/04/08 02:19:58;;;;;;;4.43;0.50;;;24.00;99.90;;;;;;5065775;28;20033;-70
2022/04/08 02:22:29;;;;;;;2.92;0.57;;;24.10;99.90;;;;;;5060065;28;20037;-70
2022/04/08 02:24:57;;;;;;;8.38;1.48;;;24.10;99.90;;;;;;5064513;28;20112;-69
2022/04/08 02:27:26;;;;;;;3.72;0.60;;;24.30;99.90;;;;;;5061447;22;20092;-70
2022/04/08 02:29:53;;;;;;;8.02;1.00;;;24.70;99.90;;;;;;5071391;28;20029;-70
2022/04/08 02:32:21;;;;;;;6.78;1.08;;;24.70;99.90;;;;;;5067522;28;20017;-70
2022/04/08 02:34:52;;;;;;;8.02;0.70;;;24.50;99.90;;;;;;5044038;28;20033;-71
2022/04/08 02:37:20;;;;;;;8.63;0.93;;;24.80;99.90;;;;;;5048959;28;20041;-70
2022/04/08 02:39:47;;;;;;;3.83;0.60;;;24.70;99.90;;;;;;5052225;28;20033;-70
2022/04/08 02:42:14;;;;;;;6.97;0.95;;;24.20;99.90;;;;;;5044023;28;20025;-70
2022/04/08 02:44:41;;;;;;;8.07;1.30;;;23.80;99.90;;;;;;5067352;28;20024;-73
2022/04/08 02:47:09;;;;;;;4.22;0.50;;;23.50;99.90;;;;;;5052729;28;20036;-73
2022/04/08 02:49:36;;;;;;;7.63;1.13;;;23.00;99.90;;;;;;5039677;28;20029;-73
2022/04/08 02:52:04;;;;;;;2.20;0.50;;;23.00;99.90;;;;;;5034604;28;20053;-74
2022/04/08 02:54:31;;;;;;;3.80;0.50;;;22.80;99.90;;;;;;5056743;28;20037;-73
2022/04/08 02:56:58;;;;;;;3.13;0.90;;;22.80;99.90;;;;;;5055656;28;20054;-74
2022/04/08 02:59:26;;;;;;;5.45;0.60;;;22.50;99.90;;;;;;5058650;28;20025;-73
2022/04/08 03:01:53;;;;;;;5.28;0.63;;;22.30;99.90;;;;;;5042531;28;20021;-73
2022/04/08 03:04:20;;;;;;;4.07;0.47;;;22.20;99.90;;;;;;5059101;28;20029;-73
2022/04/08 03:06:48;;;;;;;4.95;0.50;;;22.30;99.90;;;;;;5058383;28;20029;-72
2022/04/08 03:09:15;;;;;;;7.18;0.95;;;22.60;99.90;;;;;;5042728;28;20465;-73
2022/04/08 03:11:43;;;;;;;2.97;0.55;;;22.60;99.90;;;;;;5044691;28;20024;-72
2022/04/08 03:14:10;;;;;;;7.20;1.30;;;22.80;99.90;;;;;;5043216;28;20061;-73
2022/04/08 03:16:38;;;;;;;8.65;1.10;;;22.50;99.90;;;;;;5046778;28;20121;-72
2022/04/08 03:19:06;;;;;;;4.80;0.80;;;22.20;99.90;;;;;;5047466;28;20029;-72
2022/04/08 03:21:33;;;;;;;9.85;1.20;;;21.90;99.90;;;;;;5066683;28;20044;-72
2022/04/08 03:24:03;;;;;;;11.13;1.45;;;21.80;99.90;;;;;;5065574;28;20033;-71
2022/04/08 03:26:30;;;;;;;7.28;1.38;;;21.70;99.90;;;;;;5047074;28;20045;-73
2022/04/08 03:28:58;;;;;;;8.07;1.92;;;22.00;99.90;;;;;;5064334;22;20041;-70
2022/04/08 03:31:25;;;;;;;13.48;1.88;;;22.10;99.90;;;;;;5059766;28;20031;-73
2022/04/08 03:33:53;;;;;;;9.00;0.98;;;22.10;99.90;;;;;;5074346;22;20061;-72
2022/04/08 03:36:20;;;;;;;6.38;1.60;;;22.30;99.90;;;;;;5046116;22;20602;-73
2022/04/08 03:41:15;;;;;;;6.60;0.80;;;22.60;99.90;;;;;;5074912;28;20048;-73
2022/04/08 03:43:43;;;;;;;7.80;1.80;;;22.60;99.90;;;;;;5049194;28;20108;-73
2022/04/08 03:46:10;;;;;;;15.30;2.10;;;22.60;99.90;;;;;;5057598;28;20032;-73
2022/04/08 03:48:39;;;;;;;5.60;0.77;;;22.50;99.90;;;;;;5053533;28;20345;-73
2022/04/08 03:51:07;;;;;;;6.57;0.98;;;22.30;99.90;;;;;;5064544;28;20029;-73
2022/04/08 03:53:34;;;;;;;6.88;1.30;;;22.10;99.90;;;;;;5072924;28;20731;-73
2022/04/08 03:56:02;;;;;;;8.40;1.38;;;22.40;99.90;;;;;;5080444;28;20056;-73
2022/04/08 03:58:30;;;;;;;3.05;0.45;;;22.60;99.90;;;;;;5064636;28;20540;-72
2022/04/08 04:00:57;;;;;;;4.68;0.63;;;22.60;99.90;;;;;;5073412;28;20469;-72
2022/04/08 04:03:24;;;;;;;1.80;0.50;;;22.60;99.90;;;;;;5068311;28;20104;-72
2022/04/08 04:05:51;;;;;;;3.53;0.30;;;22.20;99.90;;;;;;5070955;28;20139;-72
2022/04/08 04:08:19;;;;;;;1.70;0.25;;;22.00;99.90;;;;;;5095310;22;20058;-72
2022/04/08 04:10:46;;;;;;;2.13;0.80;;;22.20;99.90;;;;;;5076452;28;20082;-73
2022/04/08 04:13:14;;;;;;;6.53;0.60;;;22.40;99.90;;;;;;5048628;28;20058;-73
2022/04/08 04:15:41;;;;;;;5.32;0.68;;;22.40;99.90;;;;;;5077463;28;20055;-72
2022/04/08 04:18:09;;;;;;;6.05;0.55;;;22.50;99.90;;;;;;5077414;28;20477;-72
2022/04/08 04:20:37;;;;;;;8.82;1.15;;;22.60;99.90;;;;;;5076906;28;20021;-73
2022/04/08 04:23:04;;;;;;;9.15;0.60;;;23.00;99.90;;;;;;5059563;28;20077;-72
2022/04/08 04:25:31;;;;;;;4.90;0.60;;;23.10;99.90;;;;;;5055035;28;20394;-72
2022/04/08 04:27:59;;;;;;;8.30;0.95;;;22.60;99.90;;;;;;5069478;28;20558;-72
2022/04/08 04:30:27;;;;;;;3.80;0.95;;;22.30;99.90;;;;;;5045523;28;20476;-74
2022/04/08 04:32:56;;;;;;;8.38;1.17;;;22.20;99.90;;;;;;5069800;28;20024;-73
2022/04/08 04:35:24;;;;;;;7.45;1.00;;;22.00;99.90;;;;;;5073592;28;20159;-73
2022/04/08 04:37:51;;;;;;;15.18;1.35;;;22.10;99.90;;;;;;5045460;23;20052;-72
2022/04/08 04:40:18;;;;;;;7.32;0.93;;;22.40;99.90;;;;;;5024920;28;20026;-73
2022/04/08 04:42:46;;;;;;;6.78;1.42;;;22.20;99.90;;;;;;5031910;28;20022;-73
2022/04/08 04:45:13;;;;;;;7.65;1.20;;;21.80;99.90;;;;;;5021894;28;20046;-72
2022/04/08 04:47:41;;;;;;;10.63;1.88;;;21.60;99.90;;;;;;5029075;28;20072;-72
2022/04/08 04:50:08;;;;;;;12.05;1.88;;;21.50;99.90;;;;;;5039695;28;20036;-73
2022/04/08 04:52:36;;;;;;;6.97;1.02;;;21.20;99.90;;;;;;5038462;28;20067;-74
2022/04/08 04:55:04;;;;;;;9.93;1.10;;;20.60;99.90;;;;;;5020585;28;20041;-72
2022/04/08 04:57:32;;;;;;;7.15;1.17;;;20.20;99.90;;;;;;5011414;28;20048;-74
2022/04/08 04:59:59;;;;;;;6.75;0.55;;;19.80;99.90;;;;;;5006008;28;20030;-72
2022/04/08 05:02:26;;;;;;;5.85;0.98;;;19.70;99.90;;;;;;5007531;28;20029;-73
2022/04/08 05:04:53;;;;;;;4.82;0.88;;;19.60;99.90;;;;;;5014989;28;20025;-73
2022/04/08 05:07:21;;;;;;;12.43;1.30;;;19.50;99.90;;;;;;5003840;28;20081;-73
2022/04/08 05:09:48;;;;;;;6.55;0.65;;;19.40;99.90;;;;;;5001031;28;20026;-73
2022/04/08 05:12:15;;;;;;;9.75;1.25;;;19.40;99.90;;;;;;5010857;28;20030;-73
2022/04/08 05:14:42;;;;;;;8.05;1.00;;;19.50;99.90;;;;;;5007339;28;20026;-73
2022/04/08 05:17:10;;;;;;;8.45;0.73;;;19.40;99.90;;;;;;5000877;28;20029;-73
2022/04/08 05:19:37;;;;;;;4.30;0.50;;;19.50;99.90;;;;;;5007008;28;20026;-73
2022/04/08 05:22:04;;;;;;;6.85;1.38;;;19.50;99.90;;;;;;5004458;28;20030;-72
2022/04/08 05:24:31;;;;;;;7.25;0.90;;;19.70;99.90;;;;;;5005115;28;20466;-73
2022/04/08 05:26:59;;;;;;;8.68;0.70;;;19.80;99.90;;;;;;5004643;28;20101;-72
2022/04/08 05:29:26;;;;;;;5.72;0.98;;;19.90;99.90;;;;;;5008429;28;20454;-72
2022/04/08 05:31:53;;;;;;;5.85;0.70;;;19.90;99.90;;;;;;5011067;28;20045;-72
2022/04/08 05:34:21;;;;;;;5.15;0.68;;;20.00;99.90;;;;;;5010984;28;20542;-74
2022/04/08 05:36:48;;;;;;;7.90;1.02;;;20.00;99.90;;;;;;5008896;28;20141;-73
2022/04/08 05:39:15;;;;;;;6.65;0.93;;;19.80;99.90;;;;;;4997967;28;20033;-72
2022/04/08 05:41:42;;;;;;;4.57;0.90;;;19.90;99.90;;;;;;5004956;28;20072;-72
2022/04/08 05:44:10;;;;;;;8.63;0.68;;;19.90;99.90;;;;;;5002438;28;20032;-72
2022/04/08 05:46:37;;;;;;;8.35;0.80;;;19.90;99.90;;;;;;5012377;28;20034;-72
2022/04/08 05:49:04;;;;;;;6.50;1.10;;;20.00;99.90;;;;;;5006558;28;20108;-72
2022/04/08 05:51:32;;;;;;;13.45;1.35;;;20.00;99.90;;;;;;5001792;28;20022;-72
2022/04/08 05:53:59;;;;;;;7.53;0.60;;;20.10;99.90;;;;;;5010383;28;20038;-72
2022/04/08 05:56:27;;;;;;;10.73;1.25;;;20.20;99.90;;;;;;5006646;28;20100;-72
2022/04/08 05:58:54;;;;;;;13.88;2.55;;;20.20;99.90;;;;;;5009021;28;20030;-72
2022/04/08 06:01:21;;;;;;;7.18;0.98;;;20.00;99.90;;;;;;4993557;28;20042;-72
2022/04/08 06:03:48;;;;;;;6.80;0.98;;;20.00;99.90;;;;;;5009212;28;20033;-72
2022/04/08 06:06:15;;;;;;;5.93;0.90;;;19.90;99.90;;;;;;5009852;28;20076;-72
2022/04/08 06:08:43;;;;;;;13.65;1.63;;;19.90;99.90;;;;;;5012487;28;20022;-72
2022/04/08 06:11:10;;;;;;;8.07;1.23;;;19.90;99.90;;;;;;5012520;28;20022;-72
2022/04/08 06:13:37;;;;;;;5.47;0.93;;;19.80;99.90;;;;;;5010784;28;20077;-72
2022/04/08 06:16:04;;;;;;;10.13;1.67;;;19.80;99.90;;;;;;5013044;28;20033;-72
2022/04/08 06:18:33;;;;;;;5.03;1.02;;;19.80;99.90;;;;;;5012742;28;20073;-71
2022/04/08 06:21:01;;;;;;;5.63;1.40;;;19.60;99.90;;;;;;5012781;28;20500;-72
2022/04/08 06:23:28;;;;;;;36.72;1.95;;;19.40;99.90;;;;;;5012454;28;20045;-72
2022/04/08 06:25:55;;;;;;;5.75;1.30;;;19.40;99.90;;;;;;5011116;28;20022;-73
2022/04/08 06:28:23;;;;;;;9.30;1.50;;;19.30;99.90;;;;;;5001863;28;20033;-72
2022/04/08 06:30:50;;;;;;;8.98;1.00;;;19.40;99.90;;;;;;5008576;28;20105;-71
2022/04/08 06:33:18;;;;;;;5.82;0.80;;;19.30;99.90;;;;;;5010925;28;20030;-73
2022/04/08 06:35:45;;;;;;;7.75;1.33;;;19.40;99.90;;;;;;5010973;28;20030;-72
2022/04/08 06:38:14;;;;;;;8.52;1.08;;;19.30;99.90;;;;;;5012681;28;20132;-73
2022/04/08 06:40:41;;;;;;;6.47;1.17;;;19.40;99.90;;;;;;5001970;28;20080;-72
2022/04/08 06:43:09;;;;;;;9.35;1.80;;;19.40;99.90;;;;;;5011373;28;20026;-71
2022/04/08 06:45:36;;;;;;;7.68;1.00;;;19.20;99.90;;;;;;5013245;28;20026;-73
2022/04/08 06:48:04;;;;;;;10.38;1.20;;;19.10;99.90;;;;;;5011508;28;20037;-72
2022/04/08 06:50:33;;;;;;;7.15;1.30;;;19.10;99.90;;;;;;5011961;28;20045;-72
2022/04/08 06:53:00;;;;;;;9.05;1.10;;;19.20;99.90;;;;;;5006567;28;20041;-73
2022/04/08 06:55:31;;;;;;;7.65;0.88;;;19.10;99.90;;;;;;5006256;28;20049;-72
2022/04/08 06:58:01;;;;;;;7.20;0.90;;;19.00;99.90;;;;;;4994178;28;20368;-73
2022/04/08 07:00:29;;;;;;;5.32;0.95;;;19.20;99.90;;;;;;5010422;28;20530;-72
2022/04/08 07:02:56;;;;;;;8.68;1.33;;;19.10;99.90;;;;;;4997205;28;20034;-72
2022/04/08 07:05:28;;;;;;;9.93;1.60;;;19.20;99.90;;;;;;5013066;28;20025;-72
2022/04/08 07:07:56;;;;;;;10.52;1.25;;;19.20;99.90;;;;;;5011725;28;20052;-72
2022/04/08 07:10:23;;;;;;;12.40;1.50;;;19.20;99.90;;;;;;5011215;28;20022;-72
2022/04/08 07:12:50;;;;;;;5.80;1.92;;;19.20;99.90;;;;;;4999092;28;20032;-73
2022/04/08 07:15:18;;;;;;;8.27;2.33;;;19.10;99.90;;;;;;4984134;28;20030;-74
2022/04/08 07:17:45;;;;;;;10.65;1.83;;;19.20;99.90;;;;;;5012612;28;20421;-73
2022/04/08 07:20:15;;;;;;;10.32;1.98;;;19.20;99.90;;;;;;5084441;22;20063;-73
2022/04/08 07:22:43;;;;;;;16.90;4.18;;;19.20;99.90;;;;;;5052052;28;20097;-73
2022/04/08 07:25:11;;;;;;;13.00;1.58;;;19.30;99.90;;;;;;5067768;28;20083;-73
2022/04/08 07:27:46;;;;;;;10.95;1.48;;;19.20;99.90;;;;;;5049157;28;20036;-72
2022/04/08 07:30:17;;;;;;;9.40;1.70;;;19.20;99.90;;;;;;5071957;28;20020;-72
2022/04/08 07:32:46;;;;;;;14.63;2.45;;;19.30;99.90;;;;;;5085368;22;20083;-72
2022/04/08 07:35:13;;;;;;;13.35;1.75;;;19.30;99.90;;;;;;5048676;22;20387;-72
2022/04/08 07:37:41;;;;;;;8.25;1.77;;;19.30;99.90;;;;;;5037797;22;20067;-71
2022/04/08 07:40:10;;;;;;;15.43;1.92;;;19.30;99.90;;;;;;5066563;28;20493;-74
2022/04/08 07:42:38;;;;;;;12.52;1.63;;;19.30;99.90;;;;;;5059689;28;20027;-71
2022/04/08 07:45:06;;;;;;;12.93;1.90;;;19.20;99.90;;;;;;5060990;28;20092;-71
2022/04/08 07:47:34;;;;;;;11.55;1.40;;;19.20;99.90;;;;;;5063714;28;20020;-71
2022/04/08 07:50:11;;;;;;;18.85;2.83;;;19.30;99.90;;;;;;5080044;28;20021;-70
2022/04/08 07:52:39;;;;;;;12.52;2.17;;;19.30;99.90;;;;;;5083265;23;20052;-70
2022/04/08 07:55:08;;;;;;;16.58;2.85;;;19.30;99.90;;;;;;5042242;28;20041;-72
2022/04/08 07:57:45;;;;;;;17.70;2.70;;;19.40;99.90;;;;;;5040502;28;20025;-71
2022/04/08 08:00:17;;;;;;;19.48;3.50;;;19.50;99.90;;;;;;5059509;28;20073;-70
2022/04/08 08:02:48;;;;;;;12.68;1.88;;;19.60;99.90;;;;;;5064699;28;20025;-70
2022/04/08 08:05:16;;;;;;;16.70;1.98;;;19.70;99.90;;;;;;5042961;28;20521;-70
2022/04/08 08:07:58;;;;;;;16.73;4.40;;;19.70;99.90;;;;;;5044042;28;20059;-71
2022/04/08 08:10:28;;;;;;;13.07;2.45;;;19.70;99.90;;;;;;5056015;28;20040;-70
2022/04/08 08:12:57;;;;;;;13.45;2.05;;;19.80;99.90;;;;;;5042405;28;20033;-72
2022/04/08 08:15:25;;;;;;;11.93;1.90;;;19.80;99.90;;;;;;5062232;28;20025;-71
2022/04/08 08:17:53;;;;;;;15.00;2.92;;;19.80;99.90;;;;;;5058660;28;20035;-73
2022/04/08 08:20:21;;;;;;;16.58;2.75;;;19.80;99.90;;;;;;5043430;22;20053;-73
2022/04/08 08:22:50;;;;;;;16.85;1.98;;;19.80;99.90;;;;;;5031546;28;20032;-73
2022/04/08 08:25:19;;;;;;;11.07;1.55;;;19.80;99.90;;;;;;5030998;28;20036;-72
2022/04/08 08:27:53;;;;;;;20.52;3.45;;;19.90;99.90;;;;;;5059462;28;20043;-73
2022/04/08 08:30:21;;;;;;;10.95;2.90;;;20.00;99.90;;;;;;5056842;28;20112;-73
2022/04/08 08:32:50;;;;;;;11.00;1.85;;;20.00;99.90;;;;;;5049322;28;20049;-72
2022/04/08 08:35:19;;;;;;;14.57;2.35;;;20.00;99.90;;;;;;5032285;22;20136;-73
2022/04/08 08:37:47;;;;;;;14.02;2.35;;;20.00;99.90;;;;;;5012780;28;20049;-74
2022/04/08 08:40:16;;;;;;;19.27;2.92;;;20.00;99.90;;;;;;5011761;28;20037;-73
2022/04/08 08:42:44;;;;;;;14.98;2.00;;;20.00;99.90;;;;;;5013770;28;20041;-73
2022/04/08 08:45:14;;;;;;;16.52;3.15;;;20.00;99.90;;;;;;5014231;28;20117;-73
2022/04/08 08:47:44;;;;;;;15.82;2.78;;;20.10;99.90;;;;;;5007540;28;20479;-73
2022/04/08 08:50:11;;;;;;;18.42;2.72;;;19.90;99.90;;;;;;5024553;28;20026;-73
2022/04/08 08:52:39;;;;;;;12.50;2.42;;;19.70;99.90;;;;;;5017513;28;20045;-72
2022/04/08 08:55:07;;;;;;;12.10;2.08;;;19.60;99.90;;;;;;5022455;28;20030;-72
2022/04/08 08:57:35;;;;;;;21.48;2.78;;;19.50;99.90;;;;;;5023295;28;20026;-73
2022/04/08 09:00:15;;;;;;;18.55;3.05;;;19.50;99.90;;;;;;5024600;28;20030;-71
2022/04/08 09:02:44;;;;;;;17.55;2.47;;;19.50;99.90;;;;;;5012642;28;20044;-69
2022/04/08 09:05:19;;;;;;;14.77;2.20;;;19.40;99.90;;;;;;5009666;28;20026;-73
2022/04/08 09:10:49;;;;;;;16.98;2.97;;;19.50;99.90;;;;;;5029371;28;20041;-73
2022/04/08 09:13:21;;;;;;;18.77;2.50;;;19.50;99.90;;;;;;5023992;28;20037;-73
2022/04/08 09:15:58;;;;;;;19.58;2.88;;;19.50;99.90;;;;;;5024154;28;20084;-72
2022/04/08 09:18:30;;;;;;;12.07;1.92;;;19.60;99.90;;;;;;5024576;28;20080;-73
2022/04/08 09:21:00;;;;;;;14.18;2.70;;;19.60;99.90;;;;;;5025487;28;20091;-73
2022/04/08 09:23:33;;;;;;;17.42;2.00;;;19.70;99.90;;;;;;5032524;28;20089;-72
2022/04/08 09:26:05;;;;;;;17.58;3.00;;;19.70;99.90;;;;;;5021118;28;20053;-73
2022/04/08 09:28:35;;;;;;;18.45;2.75;;;19.60;99.90;;;;;;5031959;28;20493;-72
2022/04/08 09:31:03;;;;;;;20.20;3.10;;;19.60;99.90;;;;;;5030529;28;20029;-73
2022/04/08 09:33:31;;;;;;;12.35;1.75;;;19.50;99.90;;;;;;5032333;28;20033;-72
2022/04/08 09:36:00;;;;;;;15.57;2.85;;;19.50;99.90;;;;;;5028016;28;20029;-72
2022/04/08 09:38:31;;;;;;;10.52;2.10;;;19.50;99.90;;;;;;5020251;28;20029;-73
2022/04/08 09:41:10;;;;;;;10.38;2.15;;;19.40;99.90;;;;;;5025723;28;20022;-73
2022/04/08 09:43:39;;;;;;;10.05;1.63;;;19.30;99.90;;;;;;5030073;28;20029;-73
2022/04/08 09:46:21;;;;;;;16.67;2.55;;;19.40;99.90;;;;;;5028019;28;20034;-73
2022/04/08 09:48:49;;;;;;;13.95;2.08;;;19.30;99.90;;;;;;5018046;28;20060;-73
2022/04/08 09:51:23;;;;;;;12.93;2.17;;;19.40;99.90;;;;;;5032019;28;20386;-74
2022/04/08 09:53:58;;;;;;;14.60;2.20;;;19.40;99.90;;;;;;5021544;28;20088;-73
2022/04/08 09:56:27;;;;;;;13.23;2.20;;;19.50;99.90;;;;;;5009736;28;20735;-73
2022/04/08 09:59:14;;;;;;;18.20;2.72;;;19.50;99.90;;;;;;5011310;28;20026;-73
2022/04/08 10:01:46;;;;;;;14.23;2.30;;;19.60;99.90;;;;;;5005730;28;20432;-73
2022/04/08 10:04:14;;;;;;;14.07;2.58;;;19.70;99.90;;;;;;5010442;28;20109;-72
2022/04/08 10:06:43;;;;;;;14.02;2.65;;;19.70;99.90;;;;;;5006611;28;20395;-73
2022/04/08 10:09:14;;;;;;;17.58;2.40;;;19.70;99.90;;;;;;5038014;23;20096;-72
2022/04/08 10:12:10;;;;;;;10.25;1.63;;;19.70;99.90;;;;;;5070986;22;20047;-73
2022/04/08 10:17:19;;;;;;;8.25;1.05;;;19.10;99.90;;;;;;5088338;22;20504;-73
2022/04/08 10:19:46;;;;;;;14.30;1.95;;;19.10;99.90;;;;;;5062143;22;20096;-73
2022/04/08 10:22:20;;;;;;;15.30;2.30;;;19.20;99.90;;;;;;5022045;28;20073;-72
2022/04/08 10:24:55;;;;;;;11.27;2.22;;;19.20;99.90;;;;;;5017342;28;20088;-73
2022/04/08 10:30:54;;;;;;;12.05;2.03;;;19.50;99.90;;;;;;5029635;28;20045;-73
2022/04/08 10:33:27;;;;;;;14.77;2.50;;;19.50;99.90;;;;;;4998337;28;20041;-76
2022/04/08 10:35:56;;;;;;;12.30;2.05;;;19.50;99.90;;;;;;5031763;28;20101;-76
2022/04/08 10:43:55;;;;;;;19.80;2.20;;;19.60;99.90;;;;;;5005857;28;20077;-76
2022/04/08 10:46:31;;;;;;;13.40;1.75;;;19.70;99.90;;;;;;5010281;28;20042;-74
2022/04/08 10:49:00;;;;;;;16.33;2.17;;;19.70;99.90;;;;;;5000981;28;20137;-74
2022/04/08 10:51:30;;;;;;;14.95;2.42;;;19.80;99.90;;;;;;4992155;28;20034;-74
2022/04/08 10:54:05;;;;;;;19.70;2.60;;;19.90;99.90;;;;;;4990503;28;20045;-74
2022/04/08 10:56:35;;;;;;;15.38;1.98;;;19.90;99.90;;;;;;4991173;28;20030;-75
2022/04/08 10:59:04;;;;;;;14.45;2.30;;;19.90;99.90;;;;;;4993004;28;20047;-75
2022/04/08 11:01:36;;;;;;;12.85;2.47;;;19.90;99.90;;;;;;4995655;28;20106;-74
2022/04/08 11:04:06;;;;;;;14.82;2.03;;;19.90;99.90;;;;;;4994959;28;20042;-74
2022/04/08 11:06:39;;;;;;;11.57;1.63;;;19.90;99.90;;;;;;4991167;28;20046;-75
2022/04/08 11:09:11;;;;;;;15.63;2.83;;;20.00;99.90;;;;;;4977724;28;20436;-76
2022/04/08 11:11:52;;;;;;;16.77;2.58;;;20.00;99.90;;;;;;4987421;28;20034;-75
2022/04/08 11:14:20;;;;;;;15.88;1.77;;;19.90;99.90;;;;;;4974219;28;20126;-75
2022/04/08 11:16:51;;;;;;;22.70;2.95;;;19.90;99.90;;;;;;4992465;28;20581;-75
2022/04/08 11:19:21;;;;;;;16.42;2.58;;;19.90;99.90;;;;;;5010101;28;20038;-75
2022/04/08 11:21:53;;;;;;;16.38;2.15;;;19.90;99.90;;;;;;5016193;28;20026;-75
2022/04/08 11:24:27;;;;;;;10.23;1.75;;;19.90;99.90;;;;;;5015003;28;20110;-75
2022/04/08 11:26:55;;;;;;;15.63;2.60;;;20.00;99.90;;;;;;5046888;23;20103;-76
2022/04/08 11:29:27;;;;;;;13.57;2.35;;;19.90;99.90;;;;;;5045085;28;20112;-75
2022/04/08 11:32:10;;;;;;;12.40;1.98;;;19.90;99.90;;;;;;5051302;28;20024;-76
2022/04/08 11:34:42;;;;;;;14.15;1.77;;;19.90;99.90;;;;;;5050585;28;20456;-73
2022/04/08 11:37:12;;;;;;;12.98;1.80;;;19.80;99.90;;;;;;5048106;28;20044;-73
2022/04/08 11:39:41;;;;;;;11.00;2.08;;;19.90;99.90;;;;;;5046414;28;20551;-72
2022/04/08 11:42:09;;;;;;;9.60;1.60;;;19.90;99.90;;;;;;5051267;28;20470;-73
2022/04/08 11:44:37;;;;;;;14.38;1.73;;;20.00;99.90;;;;;;5052718;28;20024;-73
2022/04/08 11:47:09;;;;;;;21.95;3.38;;;20.10;99.90;;;;;;5049654;28;20025;-73
2022/04/08 11:49:38;;;;;;;13.63;2.63;;;20.10;99.90;;;;;;5051555;28;20112;-74
2022/04/08 11:52:08;;;;;;;15.07;2.63;;;20.10;99.90;;;;;;5052074;28;20035;-73
2022/04/08 11:54:40;;;;;;;16.38;3.13;;;20.10;99.90;;;;;;5051782;28;20037;-74
2022/04/08 11:57:08;;;;;;;15.57;2.00;;;20.10;99.90;;;;;;5050929;28;20037;-74
2022/04/08 11:59:38;;;;;;;10.07;1.98;;;20.10;99.90;;;;;;5053005;23;20137;-74
2022/04/08 12:02:06;;;;;;;12.07;2.22;;;20.10;99.90;;;;;;5049169;28;20029;-73
2022/04/08 12:04:34;;;;;;;14.73;3.20;;;20.00;99.90;;;;;;5047542;28;20037;-73
2022/04/08 12:07:01;;;;;;;14.93;2.88;;;20.00;99.90;;;;;;5048088;28;20067;-73
2022/04/08 12:09:29;;;;;;;17.13;2.45;;;20.00;99.90;;;;;;5046761;28;20030;-73
2022/04/08 12:12:00;;;;;;;9.50;1.65;;;19.90;99.90;;;;;;5039576;28;20436;-73
2022/04/08 12:14:29;;;;;;;13.13;1.75;;;19.90;99.90;;;;;;5050154;28;20394;-73
2022/04/08 12:17:02;;;;;;;12.25;2.25;;;19.90;99.90;;;;;;5051288;28;20445;-73
2022/04/08 12:19:38;;;;;;;16.98;2.22;;;19.90;99.90;;;;;;5062918;28;20370;-72
2022/04/08 12:22:13;;;;;;;14.13;2.15;;;19.90;99.90;;;;;;5063269;28;20040;-73
2022/04/08 12:24:42;;;;;;;13.90;1.65;;;20.10;99.90;;;;;;5043794;28;20063;-70
2022/04/08 16:39:05;;;;;;;9.40;2.15;;;19.40;99.90;;;;;;5085592;28;20123;-72
2022/04/08 16:41:33;;;;;;;9.10;1.10;;;19.40;99.90;;;;;;5068252;22;20075;-72
2022/04/08 16:44:00;;;;;;;11.27;1.05;;;19.40;99.90;;;;;;5054323;28;20032;-73
2022/04/08 16:46:28;;;;;;;9.05;1.30;;;19.30;99.90;;;;;;5078850;22;20589;-72
2022/04/08 16:48:55;;;;;;;8.05;1.75;;;19.20;99.90;;;;;;5052643;28;20043;-72
2022/04/08 16:51:23;;;;;;;13.25;2.38;;;19.20;99.90;;;;;;5049427;28;20025;-72
2022/04/08 16:53:50;;;;;;;9.52;1.45;;;19.10;99.90;;;;;;5046331;28;20436;-72
2022/04/08 16:56:18;;;;;;;8.13;1.50;;;19.10;99.90;;;;;;5066382;22;20509;-72
2022/04/08 16:58:45;;;;;;;10.77;1.60;;;19.00;99.90;;;;;;5054064;28;20028;-72
2022/04/08 17:01:13;;;;;;;9.23;1.75;;;18.90;99.90;;;;;;5055819;28;20016;-72
2022/04/08 17:03:40;;;;;;;9.57;1.80;;;18.80;99.90;;;;;;5059064;28;20036;-72
2022/04/08 17:06:07;;;;;;;13.57;2.38;;;18.60;99.90;;;;;;5055988;28;20025;-72
2022/04/08 17:08:35;;;;;;;8.23;1.90;;;18.60;99.90;;;;;;5051460;28;20028;-72
2022/04/08 17:11:03;;;;;;;9.90;2.60;;;18.50;99.90;;;;;;5077583;22;20108;-71
2022/04/08 17:13:30;;;;;;;11.35;2.65;;;18.50;99.90;;;;;;5041549;28;20045;-71
2022/04/08 17:15:58;;;;;;;20.52;3.13;;;18.40;99.90;;;;;;5052863;28;20029;-72
2022/04/08 17:18:25;;;;;;;10.75;3.08;;;18.30;99.90;;;;;;5035659;28;20492;-71
2022/04/08 17:20:52;;;;;;;10.25;2.63;;;18.20;99.90;;;;;;5049237;28;20028;-71